sensor_id;sensor_type;location;lat;lon;timestamp;P1;durP1;ratioP1;P2;durP2;ratioP2
37885;SDS011;23726;52.520;13.434;2023-01-10T00:00:29;3.80;;;2.75;;
37885;SDS011;23726;52.520;13.434;2023-01-10T00:03:00;3.53;;;2.65;;
37885;SDS011;23726;52.520;13.434;2023-01-10T00:05:26;4.88;;;2.92;;
37885;SDS011;23726;52.520;13.434;2023-01-10T00:07:51;2.67;;;2.47;;
37885;SDS011;23726;52.520;13.434;2023-01-10T00:10:20;2.45;;;2.00;;
37885;SDS011;23726;52.520;13.434;2023-01-10T00:12:46;3.03;;;2.67;;
37885;SDS011;23726;52.520;13.434;2023-01-10T00:15:31;3.33;;;2.58;;
37885;SDS011;23726;52.520;13.434;2023-01-10T00:17:57;5.07;;;2.95;;
37885;SDS011;23726;52.520;13.434;2023-01-10T00:20:23;3.10;;;2.60;;
37885;SDS011;23726;52.520;13.434;2023-01-10T00:22:49;4.60;;;3.00;;
37885;SDS011;23726;52.520;13.434;2023-01-10T00:25:14;3.65;;;2.80;;
37885;SDS011;23726;52.520;13.434;2023-01-10T00:27:40;3.58;;;2.50;;
37885;SDS011;23726;52.520;13.434;2023-01-10T00:30:09;2.97;;;2.67;;
37885;SDS011;23726;52.520;13.434;2023-01-10T00:32:41;3.60;;;2.33;;
37885;SDS011;23726;52.520;13.434;2023-01-10T00:35:09;2.72;;;2.20;;
37885;SDS011;23726;52.520;13.434;2023-01-10T00:37:36;5.32;;;2.40;;
37885;SDS011;23726;52.520;13.434;2023-01-10T00:40:03;2.65;;;2.45;;
37885;SDS011;23726;52.520;13.434;2023-01-10T00:42:32;3.20;;;2.47;;
37885;SDS011;23726;52.520;13.434;2023-01-10T00:45:17;3.38;;;2.63;;
37885;SDS011;23726;52.520;13.434;2023-01-10T00:47:44;2.70;;;2.50;;
37885;SDS011;23726;52.520;13.434;2023-01-10T00:50:09;2.58;;;2.30;;
37885;SDS011;23726;52.520;13.434;2023-01-10T00:52:35;2.70;;;2.50;;
37885;SDS011;23726;52.520;13.434;2023-01-10T00:55:01;3.25;;;2.47;;
37885;SDS011;23726;52.520;13.434;2023-01-10T00:57:28;3.33;;;2.50;;
37885;SDS011;23726;52.520;13.434;2023-01-10T00:59:53;4.68;;;2.22;;
37885;SDS011;23726;52.520;13.434;2023-01-10T01:02:19;2.83;;;2.20;;
37885;SDS011;23726;52.520;13.434;2023-01-10T01:04:45;3.15;;;2.53;;
37885;SDS011;23726;52.520;13.434;2023-01-10T01:07:10;2.67;;;2.20;;
37885;SDS011;23726;52.520;13.434;2023-01-10T01:09:37;2.97;;;2.15;;
37885;SDS011;23726;52.520;13.434;2023-01-10T01:12:23;3.28;;;2.40;;
37885;SDS011;23726;52.520;13.434;2023-01-10T01:14:48;3.45;;;2.35;;
37885;SDS011;23726;52.520;13.434;2023-01-10T01:17:14;4.15;;;2.47;;
37885;SDS011;23726;52.520;13.434;2023-01-10T01:19:39;2.65;;;2.17;;
37885;SDS011;23726;52.520;13.434;2023-01-10T01:22:05;2.70;;;2.40;;
37885;SDS011;23726;52.520;13.434;2023-01-10T01:24:32;3.28;;;2.35;;
37885;SDS011;23726;52.520;13.434;2023-01-10T01:26:57;2.22;;;2.03;;
37885;SDS011;23726;52.520;13.434;2023-01-10T01:29:23;2.42;;;2.22;;
37885;SDS011;23726;52.520;13.434;2023-01-10T01:31:49;3.28;;;2.63;;
37885;SDS011;23726;52.520;13.434;2023-01-10T01:34:14;4.00;;;2.67;;
37885;SDS011;23726;52.520;13.434;2023-01-10T01:36:40;3.05;;;2.35;;
37885;SDS011;23726;52.520;13.434;2023-01-10T01:39:06;2.60;;;2.10;;
37885;SDS011;23726;52.520;13.434;2023-01-10T01:41:32;3.35;;;2.38;;
37885;SDS011;23726;52.520;13.434;2023-01-10T01:44:17;4.20;;;2.25;;
37885;SDS011;23726;52.520;13.434;2023-01-10T01:47:19;2.17;;;1.98;;
37885;SDS011;23726;52.520;13.434;2023-01-10T01:49:49;2.58;;;2.38;;
37885;SDS011;23726;52.520;13.434;2023-01-10T01:52:21;2.47;;;2.28;;
37885;SDS011;23726;52.520;13.434;2023-01-10T01:54:51;2.05;;;1.83;;
37885;SDS011;23726;52.520;13.434;2023-01-10T01:57:20;2.42;;;2.22;;
37885;SDS011;23726;52.520;13.434;2023-01-10T01:59:50;2.80;;;2.50;;
37885;SDS011;23726;52.520;13.434;2023-01-10T02:02:21;2.97;;;2.67;;
37885;SDS011;23726;52.520;13.434;2023-01-10T02:07:21;3.58;;;2.20;;
37885;SDS011;23726;52.520;13.434;2023-01-10T02:09:53;2.40;;;2.15;;
37885;SDS011;23726;52.520;13.434;2023-01-10T02:12:23;2.90;;;2.33;;
37885;SDS011;23726;52.520;13.434;2023-01-10T02:14:52;2.42;;;2.22;;
37885;SDS011;23726;52.520;13.434;2023-01-10T02:17:18;3.63;;;2.55;;
37885;SDS011;23726;52.520;13.434;2023-01-10T02:25:42;3.55;;;2.30;;
37885;SDS011;23726;52.520;13.434;2023-01-10T02:44:42;2.45;;;2.25;;
37885;SDS011;23726;52.520;13.434;2023-01-10T02:47:13;2.80;;;2.22;;
37885;SDS011;23726;52.520;13.434;2023-01-10T02:49:42;2.50;;;2.25;;
37885;SDS011;23726;52.520;13.434;2023-01-10T02:52:09;2.85;;;2.22;;
37885;SDS011;23726;52.520;13.434;2023-01-10T02:54:36;2.42;;;2.13;;
37885;SDS011;23726;52.520;13.434;2023-01-10T02:57:18;2.50;;;2.20;;
37885;SDS011;23726;52.520;13.434;2023-01-10T03:00:50;2.50;;;2.03;;
37885;SDS011;23726;52.520;13.434;2023-01-10T03:11:07;2.25;;;1.98;;
37885;SDS011;23726;52.520;13.434;2023-01-10T03:13:36;2.38;;;2.00;;
37885;SDS011;23726;52.520;13.434;2023-01-10T03:16:18;2.45;;;2.15;;
37885;SDS011;23726;52.520;13.434;2023-01-10T03:21:20;3.30;;;2.30;;
37885;SDS011;23726;52.520;13.434;2023-01-10T03:23:49;2.70;;;2.30;;
37885;SDS011;23726;52.520;13.434;2023-01-10T03:26:19;2.60;;;2.20;;
37885;SDS011;23726;52.520;13.434;2023-01-10T03:29:06;2.60;;;1.98;;
37885;SDS011;23726;52.520;13.434;2023-01-10T03:31:38;2.10;;;1.77;;
37885;SDS011;23726;52.520;13.434;2023-01-10T03:34:13;3.33;;;2.40;;
37885;SDS011;23726;52.520;13.434;2023-01-10T03:36:46;2.22;;;2.03;;
37885;SDS011;23726;52.520;13.434;2023-01-10T03:47:41;2.53;;;2.08;;
37885;SDS011;23726;52.520;13.434;2023-01-10T03:50:12;3.05;;;2.33;;
37885;SDS011;23726;52.520;13.434;2023-01-10T03:52:45;2.22;;;1.88;;
37885;SDS011;23726;52.520;13.434;2023-01-10T03:55:13;3.42;;;2.10;;
37885;SDS011;23726;52.520;13.434;2023-01-10T03:57:42;2.17;;;1.90;;
37885;SDS011;23726;52.520;13.434;2023-01-10T04:00:09;2.70;;;2.10;;
37885;SDS011;23726;52.520;13.434;2023-01-10T04:02:37;2.10;;;1.90;;
37885;SDS011;23726;52.520;13.434;2023-01-10T04:05:03;2.33;;;2.05;;
37885;SDS011;23726;52.520;13.434;2023-01-10T04:07:29;4.45;;;2.20;;
37885;SDS011;23726;52.520;13.434;2023-01-10T04:09:54;2.88;;;2.25;;
37885;SDS011;23726;52.520;13.434;2023-01-10T04:12:20;2.08;;;1.88;;
37885;SDS011;23726;52.520;13.434;2023-01-10T04:14:45;2.10;;;1.90;;
37885;SDS011;23726;52.520;13.434;2023-01-10T04:17:12;2.10;;;1.80;;
37885;SDS011;23726;52.520;13.434;2023-01-10T04:19:38;3.10;;;2.10;;
37885;SDS011;23726;52.520;13.434;2023-01-10T04:22:04;2.17;;;1.88;;
37885;SDS011;23726;52.520;13.434;2023-01-10T04:24:30;2.40;;;2.00;;
37885;SDS011;23726;52.520;13.434;2023-01-10T04:26:56;1.92;;;1.83;;
37885;SDS011;23726;52.520;13.434;2023-01-10T04:29:21;2.05;;;1.90;;
37885;SDS011;23726;52.520;13.434;2023-01-10T04:31:47;2.20;;;1.70;;
37885;SDS011;23726;52.520;13.434;2023-01-10T04:34:14;2.60;;;2.05;;
37885;SDS011;23726;52.520;13.434;2023-01-10T04:36:39;2.60;;;2.00;;
37885;SDS011;23726;52.520;13.434;2023-01-10T04:39:05;2.55;;;2.30;;
37885;SDS011;23726;52.520;13.434;2023-01-10T04:41:32;2.40;;;2.13;;
37885;SDS011;23726;52.520;13.434;2023-01-10T04:43:58;2.30;;;1.92;;
37885;SDS011;23726;52.520;13.434;2023-01-10T04:46:24;1.92;;;1.80;;
37885;SDS011;23726;52.520;13.434;2023-01-10T04:48:50;2.30;;;1.85;;
37885;SDS011;23726;52.520;13.434;2023-01-10T04:51:16;2.30;;;2.10;;
37885;SDS011;23726;52.520;13.434;2023-01-10T04:53:42;2.08;;;1.88;;
37885;SDS011;23726;52.520;13.434;2023-01-10T04:56:08;3.15;;;2.30;;
37885;SDS011;23726;52.520;13.434;2023-01-10T04:58:39;2.17;;;1.95;;
37885;SDS011;23726;52.520;13.434;2023-01-10T05:01:08;2.10;;;1.90;;
37885;SDS011;23726;52.520;13.434;2023-01-10T05:03:35;1.88;;;1.77;;
37885;SDS011;23726;52.520;13.434;2023-01-10T05:06:01;1.92;;;1.73;;
37885;SDS011;23726;52.520;13.434;2023-01-10T05:08:27;2.58;;;1.88;;
37885;SDS011;23726;52.520;13.434;2023-01-10T05:10:52;2.15;;;1.92;;
37885;SDS011;23726;52.520;13.434;2023-01-10T05:13:18;2.28;;;2.08;;
37885;SDS011;23726;52.520;13.434;2023-01-10T05:15:44;2.00;;;1.80;;
37885;SDS011;23726;52.520;13.434;2023-01-10T05:18:09;2.70;;;1.85;;
37885;SDS011;23726;52.520;13.434;2023-01-10T05:20:35;3.00;;;1.73;;
37885;SDS011;23726;52.520;13.434;2023-01-10T05:23:01;2.47;;;1.92;;
37885;SDS011;23726;52.520;13.434;2023-01-10T05:25:27;2.28;;;2.05;;
37885;SDS011;23726;52.520;13.434;2023-01-10T05:27:53;2.08;;;1.88;;
37885;SDS011;23726;52.520;13.434;2023-01-10T05:30:19;1.90;;;1.80;;
37885;SDS011;23726;52.520;13.434;2023-01-10T05:32:45;2.50;;;2.30;;
37885;SDS011;23726;52.520;13.434;2023-01-10T05:35:10;2.38;;;2.00;;
37885;SDS011;23726;52.520;13.434;2023-01-10T05:37:36;2.33;;;2.08;;
37885;SDS011;23726;52.520;13.434;2023-01-10T05:40:02;2.25;;;2.05;;
37885;SDS011;23726;52.520;13.434;2023-01-10T05:42:28;2.03;;;1.83;;
37885;SDS011;23726;52.520;13.434;2023-01-10T05:44:53;2.45;;;1.90;;
37885;SDS011;23726;52.520;13.434;2023-01-10T05:47:19;1.85;;;1.67;;
37885;SDS011;23726;52.520;13.434;2023-01-10T05:49:45;1.95;;;1.80;;
37885;SDS011;23726;52.520;13.434;2023-01-10T05:52:10;2.47;;;2.13;;
37885;SDS011;23726;52.520;13.434;2023-01-10T05:54:36;2.20;;;2.00;;
37885;SDS011;23726;52.520;13.434;2023-01-10T05:57:02;2.25;;;1.98;;
37885;SDS011;23726;52.520;13.434;2023-01-10T05:59:28;2.28;;;2.08;;
37885;SDS011;23726;52.520;13.434;2023-01-10T06:01:54;5.13;;;2.00;;
37885;SDS011;23726;52.520;13.434;2023-01-10T06:04:20;2.15;;;1.90;;
37885;SDS011;23726;52.520;13.434;2023-01-10T06:06:45;2.30;;;2.08;;
37885;SDS011;23726;52.520;13.434;2023-01-10T06:09:12;1.77;;;1.67;;
37885;SDS011;23726;52.520;13.434;2023-01-10T06:11:37;2.45;;;1.80;;
37885;SDS011;23726;52.520;13.434;2023-01-10T06:14:03;1.88;;;1.73;;
37885;SDS011;23726;52.520;13.434;2023-01-10T06:16:29;2.10;;;1.90;;
37885;SDS011;23726;52.520;13.434;2023-01-10T06:18:55;2.88;;;2.00;;
37885;SDS011;23726;52.520;13.434;2023-01-10T06:21:21;1.80;;;1.70;;
37885;SDS011;23726;52.520;13.434;2023-01-10T06:23:48;2.13;;;1.90;;
37885;SDS011;23726;52.520;13.434;2023-01-10T06:26:13;2.28;;;2.08;;
37885;SDS011;23726;52.520;13.434;2023-01-10T06:28:39;2.22;;;1.92;;
37885;SDS011;23726;52.520;13.434;2023-01-10T06:31:07;2.38;;;1.83;;
37885;SDS011;23726;52.520;13.434;2023-01-10T06:33:33;2.00;;;1.80;;
37885;SDS011;23726;52.520;13.434;2023-01-10T06:35:59;1.77;;;1.67;;
37885;SDS011;23726;52.520;13.434;2023-01-10T06:38:25;2.00;;;1.85;;
37885;SDS011;23726;52.520;13.434;2023-01-10T06:40:51;2.55;;;2.00;;
37885;SDS011;23726;52.520;13.434;2023-01-10T06:43:16;2.42;;;1.80;;
37885;SDS011;23726;52.520;13.434;2023-01-10T06:45:42;2.03;;;1.83;;
37885;SDS011;23726;52.520;13.434;2023-01-10T06:48:08;2.03;;;1.83;;
37885;SDS011;23726;52.520;13.434;2023-01-10T06:50:33;1.80;;;1.70;;
37885;SDS011;23726;52.520;13.434;2023-01-10T06:53:02;1.83;;;1.65;;
37885;SDS011;23726;52.520;13.434;2023-01-10T06:55:29;2.38;;;1.80;;
37885;SDS011;23726;52.520;13.434;2023-01-10T06:58:00;2.08;;;1.75;;
37885;SDS011;23726;52.520;13.434;2023-01-10T07:00:28;2.05;;;1.85;;
37885;SDS011;23726;52.520;13.434;2023-01-10T07:02:56;2.10;;;1.90;;
37885;SDS011;23726;52.520;13.434;2023-01-10T07:05:22;1.73;;;1.50;;
37885;SDS011;23726;52.520;13.434;2023-01-10T07:07:48;2.00;;;1.80;;
37885;SDS011;23726;52.520;13.434;2023-01-10T07:10:15;2.35;;;2.00;;
37885;SDS011;23726;52.520;13.434;2023-01-10T07:12:41;1.67;;;1.58;;
37885;SDS011;23726;52.520;13.434;2023-01-10T07:15:06;2.60;;;1.95;;
37885;SDS011;23726;52.520;13.434;2023-01-10T07:17:32;1.98;;;1.80;;
37885;SDS011;23726;52.520;13.434;2023-01-10T07:19:59;1.83;;;1.60;;
37885;SDS011;23726;52.520;13.434;2023-01-10T07:22:25;2.20;;;1.95;;
37885;SDS011;23726;52.520;13.434;2023-01-10T07:24:50;2.10;;;1.90;;
37885;SDS011;23726;52.520;13.434;2023-01-10T07:27:16;1.77;;;1.60;;
37885;SDS011;23726;52.520;13.434;2023-01-10T07:29:41;2.10;;;1.60;;
37885;SDS011;23726;52.520;13.434;2023-01-10T07:32:07;2.13;;;1.90;;
37885;SDS011;23726;52.520;13.434;2023-01-10T07:34:32;1.98;;;1.77;;
37885;SDS011;23726;52.520;13.434;2023-01-10T07:37:00;1.88;;;1.73;;
37885;SDS011;23726;52.520;13.434;2023-01-10T07:39:26;1.95;;;1.75;;
37885;SDS011;23726;52.520;13.434;2023-01-10T07:41:51;2.25;;;1.90;;
37885;SDS011;23726;52.520;13.434;2023-01-10T07:44:17;2.30;;;2.10;;
37885;SDS011;23726;52.520;13.434;2023-01-10T07:46:43;2.00;;;1.83;;
37885;SDS011;23726;52.520;13.434;2023-01-10T07:49:09;1.95;;;1.60;;
37885;SDS011;23726;52.520;13.434;2023-01-10T07:51:35;1.95;;;1.80;;
37885;SDS011;23726;52.520;13.434;2023-01-10T07:54:01;1.83;;;1.65;;
37885;SDS011;23726;52.520;13.434;2023-01-10T07:56:27;1.70;;;1.60;;
37885;SDS011;23726;52.520;13.434;2023-01-10T07:58:53;2.00;;;1.80;;
37885;SDS011;23726;52.520;13.434;2023-01-10T08:01:18;2.03;;;1.70;;
37885;SDS011;23726;52.520;13.434;2023-01-10T08:03:44;1.98;;;1.77;;
37885;SDS011;23726;52.520;13.434;2023-01-10T08:06:10;1.60;;;1.50;;
37885;SDS011;23726;52.520;13.434;2023-01-10T08:08:36;2.08;;;1.73;;
37885;SDS011;23726;52.520;13.434;2023-01-10T08:11:02;2.15;;;1.90;;
37885;SDS011;23726;52.520;13.434;2023-01-10T08:13:29;2.00;;;1.70;;
37885;SDS011;23726;52.520;13.434;2023-01-10T08:15:55;2.22;;;1.98;;
37885;SDS011;23726;52.520;13.434;2023-01-10T08:18:21;2.30;;;1.83;;
37885;SDS011;23726;52.520;13.434;2023-01-10T08:20:48;2.13;;;1.90;;
37885;SDS011;23726;52.520;13.434;2023-01-10T08:23:14;1.88;;;1.77;;
37885;SDS011;23726;52.520;13.434;2023-01-10T08:25:40;1.98;;;1.77;;
37885;SDS011;23726;52.520;13.434;2023-01-10T08:28:06;1.75;;;1.65;;
37885;SDS011;23726;52.520;13.434;2023-01-10T08:30:32;2.67;;;1.80;;
37885;SDS011;23726;52.520;13.434;2023-01-10T08:32:57;2.13;;;1.73;;
37885;SDS011;23726;52.520;13.434;2023-01-10T08:35:26;2.33;;;2.05;;
37885;SDS011;23726;52.520;13.434;2023-01-10T08:37:51;1.70;;;1.60;;
37885;SDS011;23726;52.520;13.434;2023-01-10T08:40:17;1.75;;;1.65;;
37885;SDS011;23726;52.520;13.434;2023-01-10T08:42:43;1.73;;;1.60;;
37885;SDS011;23726;52.520;13.434;2023-01-10T08:45:08;2.15;;;1.77;;
37885;SDS011;23726;52.520;13.434;2023-01-10T08:47:34;5.03;;;1.60;;
37885;SDS011;23726;52.520;13.434;2023-01-10T08:50:00;2.08;;;1.77;;
37885;SDS011;23726;52.520;13.434;2023-01-10T08:52:26;2.63;;;1.95;;
37885;SDS011;23726;52.520;13.434;2023-01-10T08:54:52;1.70;;;1.60;;
37885;SDS011;23726;52.520;13.434;2023-01-10T08:57:17;3.10;;;2.00;;
37885;SDS011;23726;52.520;13.434;2023-01-10T08:59:43;3.03;;;1.70;;
37885;SDS011;23726;52.520;13.434;2023-01-10T09:02:12;5.15;;;2.00;;
37885;SDS011;23726;52.520;13.434;2023-01-10T09:04:37;2.08;;;1.85;;
37885;SDS011;23726;52.520;13.434;2023-01-10T09:07:03;1.92;;;1.73;;
37885;SDS011;23726;52.520;13.434;2023-01-10T09:09:29;1.90;;;1.80;;
37885;SDS011;23726;52.520;13.434;2023-01-10T09:11:54;2.25;;;1.75;;
37885;SDS011;23726;52.520;13.434;2023-01-10T09:14:21;2.08;;;1.80;;
37885;SDS011;23726;52.520;13.434;2023-01-10T09:16:47;1.90;;;1.70;;
37885;SDS011;23726;52.520;13.434;2023-01-10T09:19:15;2.05;;;1.85;;
37885;SDS011;23726;52.520;13.434;2023-01-10T09:21:41;2.78;;;1.80;;
37885;SDS011;23726;52.520;13.434;2023-01-10T09:24:07;2.15;;;1.73;;
37885;SDS011;23726;52.520;13.434;2023-01-10T09:26:32;2.05;;;1.73;;
37885;SDS011;23726;52.520;13.434;2023-01-10T09:28:58;2.42;;;1.50;;
37885;SDS011;23726;52.520;13.434;2023-01-10T09:31:24;3.08;;;1.67;;
37885;SDS011;23726;52.520;13.434;2023-01-10T09:33:49;1.80;;;1.70;;
37885;SDS011;23726;52.520;13.434;2023-01-10T09:36:15;2.10;;;1.80;;
37885;SDS011;23726;52.520;13.434;2023-01-10T09:38:41;2.58;;;1.50;;
37885;SDS011;23726;52.520;13.434;2023-01-10T09:41:15;2.15;;;1.80;;
37885;SDS011;23726;52.520;13.434;2023-01-10T09:49:11;1.95;;;1.75;;
37885;SDS011;23726;52.520;13.434;2023-01-10T09:51:45;1.92;;;1.70;;
37885;SDS011;23726;52.520;13.434;2023-01-10T09:56:44;2.40;;;1.75;;
37885;SDS011;23726;52.520;13.434;2023-01-10T09:59:26;2.05;;;1.67;;
37885;SDS011;23726;52.520;13.434;2023-01-10T10:07:59;2.35;;;1.75;;
37885;SDS011;23726;52.520;13.434;2023-01-10T10:10:50;1.65;;;1.55;;
37885;SDS011;23726;52.520;13.434;2023-01-10T10:13:32;2.13;;;1.60;;
37885;SDS011;23726;52.520;13.434;2023-01-10T10:19:51;1.58;;;1.48;;
37885;SDS011;23726;52.520;13.434;2023-01-10T10:22:18;2.65;;;1.80;;
37885;SDS011;23726;52.520;13.434;2023-01-10T10:25:03;1.83;;;1.70;;
37885;SDS011;23726;52.520;13.434;2023-01-10T10:32:59;5.78;;;2.10;;
37885;SDS011;23726;52.520;13.434;2023-01-10T10:37:54;7.38;;;2.88;;
37885;SDS011;23726;52.520;13.434;2023-01-10T10:40:28;5.32;;;2.55;;
37885;SDS011;23726;52.520;13.434;2023-01-10T10:43:05;9.18;;;3.70;;
37885;SDS011;23726;52.520;13.434;2023-01-10T10:45:45;46.75;;;12.63;;
37885;SDS011;23726;52.520;13.434;2023-01-10T10:48:15;33.10;;;8.40;;
37885;SDS011;23726;52.520;13.434;2023-01-10T10:50:56;32.65;;;9.98;;
37885;SDS011;23726;52.520;13.434;2023-01-10T10:53:22;197.02;;;37.85;;
37885;SDS011;23726;52.520;13.434;2023-01-10T10:55:48;223.80;;;43.03;;
37885;SDS011;23726;52.520;13.434;2023-01-10T10:58:14;337.80;;;57.13;;
37885;SDS011;23726;52.520;13.434;2023-01-10T11:00:41;363.23;;;65.03;;
37885;SDS011;23726;52.520;13.434;2023-01-10T11:05:52;326.60;;;58.28;;
37885;SDS011;23726;52.520;13.434;2023-01-10T11:08:19;255.15;;;49.83;;
37885;SDS011;23726;52.520;13.434;2023-01-10T11:10:47;270.63;;;51.50;;
37885;SDS011;23726;52.520;13.434;2023-01-10T11:15:49;271.40;;;58.55;;
37885;SDS011;23726;52.520;13.434;2023-01-10T11:21:03;206.80;;;45.63;;
37885;SDS011;23726;52.520;13.434;2023-01-10T11:26:38;217.57;;;45.97;;
37885;SDS011;23726;52.520;13.434;2023-01-10T11:31:45;229.23;;;50.90;;
37885;SDS011;23726;52.520;13.434;2023-01-10T11:34:32;228.27;;;49.03;;
37885;SDS011;23726;52.520;13.434;2023-01-10T11:37:00;191.20;;;47.95;;
37885;SDS011;23726;52.520;13.434;2023-01-10T11:39:29;219.35;;;48.50;;
37885;SDS011;23726;52.520;13.434;2023-01-10T11:41:56;212.90;;;47.78;;
37885;SDS011;23726;52.520;13.434;2023-01-10T11:44:24;203.10;;;46.67;;
37885;SDS011;23726;52.520;13.434;2023-01-10T11:46:55;201.40;;;45.53;;
37885;SDS011;23726;52.520;13.434;2023-01-10T11:49:26;202.98;;;47.10;;
37885;SDS011;23726;52.520;13.434;2023-01-10T11:52:02;185.38;;;45.47;;
37885;SDS011;23726;52.520;13.434;2023-01-10T11:54:29;194.55;;;45.80;;
37885;SDS011;23726;52.520;13.434;2023-01-10T11:56:58;202.05;;;45.72;;
37885;SDS011;23726;52.520;13.434;2023-01-10T11:59:31;188.30;;;43.55;;
37885;SDS011;23726;52.520;13.434;2023-01-10T12:02:11;179.02;;;41.38;;
37885;SDS011;23726;52.520;13.434;2023-01-10T12:04:47;176.77;;;40.95;;
37885;SDS011;23726;52.520;13.434;2023-01-10T12:07:14;171.13;;;40.10;;
37885;SDS011;23726;52.520;13.434;2023-01-10T12:09:41;161.23;;;40.97;;
37885;SDS011;23726;52.520;13.434;2023-01-10T12:12:22;163.23;;;40.35;;
37885;SDS011;23726;52.520;13.434;2023-01-10T12:14:50;147.02;;;38.80;;
37885;SDS011;23726;52.520;13.434;2023-01-10T12:19:54;144.52;;;37.75;;
37885;SDS011;23726;52.520;13.434;2023-01-10T12:22:34;151.20;;;38.03;;
37885;SDS011;23726;52.520;13.434;2023-01-10T12:25:10;140.15;;;35.45;;
37885;SDS011;23726;52.520;13.434;2023-01-10T12:27:44;136.00;;;36.15;;
37885;SDS011;23726;52.520;13.434;2023-01-10T12:30:16;134.27;;;36.17;;
37885;SDS011;23726;52.520;13.434;2023-01-10T12:32:58;127.43;;;33.78;;
37885;SDS011;23726;52.520;13.434;2023-01-10T12:35:49;120.38;;;33.35;;
37885;SDS011;23726;52.520;13.434;2023-01-10T12:38:31;121.57;;;32.42;;
37885;SDS011;23726;52.520;13.434;2023-01-10T12:44:40;120.80;;;31.92;;
37885;SDS011;23726;52.520;13.434;2023-01-10T12:49:59;117.30;;;31.15;;
37885;SDS011;23726;52.520;13.434;2023-01-10T12:52:36;103.57;;;30.55;;
37885;SDS011;23726;52.520;13.434;2023-01-10T12:55:12;112.15;;;31.25;;
37885;SDS011;23726;52.520;13.434;2023-01-10T12:57:49;103.35;;;31.40;;
37885;SDS011;23726;52.520;13.434;2023-01-10T13:00:22;107.60;;;30.93;;
37885;SDS011;23726;52.520;13.434;2023-01-10T13:02:53;100.80;;;30.40;;
37885;SDS011;23726;52.520;13.434;2023-01-10T13:05:22;102.00;;;28.77;;
37885;SDS011;23726;52.520;13.434;2023-01-10T13:07:50;96.93;;;30.95;;
37885;SDS011;23726;52.520;13.434;2023-01-10T13:10:20;99.57;;;29.50;;
37885;SDS011;23726;52.520;13.434;2023-01-10T13:12:51;107.47;;;29.50;;
37885;SDS011;23726;52.520;13.434;2023-01-10T13:15:22;104.30;;;30.00;;
37885;SDS011;23726;52.520;13.434;2023-01-10T13:18:00;93.25;;;29.75;;
37885;SDS011;23726;52.520;13.434;2023-01-10T13:20:34;91.60;;;28.58;;
37885;SDS011;23726;52.520;13.434;2023-01-10T13:23:10;94.05;;;27.35;;
37885;SDS011;23726;52.520;13.434;2023-01-10T13:26:02;92.55;;;26.92;;
37885;SDS011;23726;52.520;13.434;2023-01-10T13:28:33;89.18;;;27.65;;
37885;SDS011;23726;52.520;13.434;2023-01-10T13:31:30;83.90;;;27.05;;
37885;SDS011;23726;52.520;13.434;2023-01-10T13:34:04;90.70;;;27.42;;
37885;SDS011;23726;52.520;13.434;2023-01-10T13:36:36;102.50;;;26.83;;
37885;SDS011;23726;52.520;13.434;2023-01-10T13:39:06;89.15;;;26.95;;
37885;SDS011;23726;52.520;13.434;2023-01-10T14:00:52;94.22;;;26.67;;
37885;SDS011;23726;52.520;13.434;2023-01-10T14:08:52;78.45;;;24.70;;
37885;SDS011;23726;52.520;13.434;2023-01-10T14:11:57;80.78;;;26.05;;
37885;SDS011;23726;52.520;13.434;2023-01-10T14:14:18;81.43;;;25.48;;
37885;SDS011;23726;52.520;13.434;2023-01-10T14:16:51;78.55;;;25.45;;
37885;SDS011;23726;52.520;13.434;2023-01-10T14:22:35;72.75;;;23.58;;
37885;SDS011;23726;52.520;13.434;2023-01-10T14:25:23;71.95;;;24.00;;
37885;SDS011;23726;52.520;13.434;2023-01-10T14:27:49;73.03;;;24.23;;
37885;SDS011;23726;52.520;13.434;2023-01-10T14:30:19;64.97;;;22.52;;
37885;SDS011;23726;52.520;13.434;2023-01-10T14:32:46;72.97;;;24.77;;
37885;SDS011;23726;52.520;13.434;2023-01-10T14:35:20;68.43;;;24.05;;
37885;SDS011;23726;52.520;13.434;2023-01-10T14:37:55;74.22;;;23.52;;
37885;SDS011;23726;52.520;13.434;2023-01-10T14:40:32;69.15;;;22.98;;
37885;SDS011;23726;52.520;13.434;2023-01-10T14:43:06;67.70;;;22.10;;
37885;SDS011;23726;52.520;13.434;2023-01-10T14:45:42;67.85;;;22.85;;
37885;SDS011;23726;52.520;13.434;2023-01-10T14:48:22;65.25;;;22.40;;
37885;SDS011;23726;52.520;13.434;2023-01-10T14:50:50;70.43;;;22.58;;
37885;SDS011;23726;52.520;13.434;2023-01-10T14:53:26;66.78;;;22.08;;
37885;SDS011;23726;52.520;13.434;2023-01-10T14:55:53;67.25;;;22.52;;
37885;SDS011;23726;52.520;13.434;2023-01-10T14:58:19;65.35;;;22.42;;
37885;SDS011;23726;52.520;13.434;2023-01-10T15:00:46;62.38;;;22.00;;
37885;SDS011;23726;52.520;13.434;2023-01-10T15:03:17;62.38;;;21.98;;
37885;SDS011;23726;52.520;13.434;2023-01-10T15:05:45;58.35;;;20.65;;
37885;SDS011;23726;52.520;13.434;2023-01-10T15:10:53;65.30;;;22.63;;
37885;SDS011;23726;52.520;13.434;2023-01-10T15:13:24;63.10;;;22.30;;
37885;SDS011;23726;52.520;13.434;2023-01-10T15:15:52;56.90;;;20.30;;
37885;SDS011;23726;52.520;13.434;2023-01-10T15:20:57;62.53;;;21.98;;
37885;SDS011;23726;52.520;13.434;2023-01-10T15:23:24;58.10;;;21.38;;
37885;SDS011;23726;52.520;13.434;2023-01-10T15:25:56;55.30;;;21.05;;
37885;SDS011;23726;52.520;13.434;2023-01-10T15:28:25;55.22;;;20.67;;
37885;SDS011;23726;52.520;13.434;2023-01-10T15:30:53;63.53;;;21.30;;
37885;SDS011;23726;52.520;13.434;2023-01-10T15:33:26;50.00;;;19.95;;
37885;SDS011;23726;52.520;13.434;2023-01-10T15:35:55;58.80;;;22.02;;
37885;SDS011;23726;52.520;13.434;2023-01-10T15:38:27;60.67;;;20.88;;
37885;SDS011;23726;52.520;13.434;2023-01-10T15:40:59;51.28;;;19.70;;
37885;SDS011;23726;52.520;13.434;2023-01-10T15:43:27;53.92;;;20.23;;
37885;SDS011;23726;52.520;13.434;2023-01-10T15:45:58;58.47;;;19.85;;
37885;SDS011;23726;52.520;13.434;2023-01-10T15:56:16;55.78;;;20.30;;
37885;SDS011;23726;52.520;13.434;2023-01-10T15:58:49;53.80;;;19.70;;
37885;SDS011;23726;52.520;13.434;2023-01-10T16:01:17;47.30;;;18.50;;
37885;SDS011;23726;52.520;13.434;2023-01-10T16:03:44;50.20;;;18.80;;
37885;SDS011;23726;52.520;13.434;2023-01-10T16:06:22;60.13;;;19.95;;
37885;SDS011;23726;52.520;13.434;2023-01-10T16:08:58;52.75;;;18.52;;
37885;SDS011;23726;52.520;13.434;2023-01-10T16:11:34;52.38;;;19.40;;
37885;SDS011;23726;52.520;13.434;2023-01-10T16:14:20;50.28;;;17.88;;
37885;SDS011;23726;52.520;13.434;2023-01-10T16:16:46;49.33;;;18.17;;
37885;SDS011;23726;52.520;13.434;2023-01-10T16:19:12;51.67;;;18.58;;
37885;SDS011;23726;52.520;13.434;2023-01-10T16:21:38;51.45;;;18.02;;
37885;SDS011;23726;52.520;13.434;2023-01-10T16:24:18;47.60;;;18.75;;
37885;SDS011;23726;52.520;13.434;2023-01-10T16:26:46;52.05;;;18.58;;
37885;SDS011;23726;52.520;13.434;2023-01-10T16:29:14;50.08;;;18.65;;
37885;SDS011;23726;52.520;13.434;2023-01-10T16:31:40;44.95;;;18.17;;
37885;SDS011;23726;52.520;13.434;2023-01-10T16:34:06;45.63;;;17.88;;
37885;SDS011;23726;52.520;13.434;2023-01-10T16:36:33;47.55;;;18.67;;
37885;SDS011;23726;52.520;13.434;2023-01-10T16:39:13;49.50;;;18.65;;
37885;SDS011;23726;52.520;13.434;2023-01-10T16:41:43;47.88;;;17.85;;
37885;SDS011;23726;52.520;13.434;2023-01-10T16:44:29;45.55;;;17.92;;
37885;SDS011;23726;52.520;13.434;2023-01-10T16:46:55;42.72;;;17.08;;
37885;SDS011;23726;52.520;13.434;2023-01-10T16:49:22;42.03;;;17.27;;